createdAt,value
2023-04-01T00:01:39.684Z,3.50
2023-04-01T00:04:08.066Z,3.57
2023-04-01T00:06:36.562Z,3.80
2023-04-01T00:09:06.164Z,3.53
2023-04-01T00:11:34.990Z,3.67
2023-04-01T00:14:03.437Z,3.93
2023-04-01T00:16:31.812Z,3.57
2023-04-01T00:19:00.899Z,4.50
2023-04-01T00:21:29.243Z,3.17
2023-04-01T00:23:57.645Z,3.73
2023-04-01T00:26:27.575Z,3.93
2023-04-01T00:28:56.247Z,3.43
2023-04-01T00:31:24.724Z,3.53
2023-04-01T00:33:54.649Z,3.80
2023-04-01T00:36:24.282Z,3.30
2023-04-01T00:38:52.977Z,3.40
2023-04-01T00:41:22.633Z,3.17
2023-04-01T00:43:53.573Z,3.23
2023-04-01T00:46:22.006Z,3.67
2023-04-01T00:48:52.080Z,3.57
2023-04-01T00:51:23.306Z,3.40
2023-04-01T00:53:55.151Z,3.63
2023-04-01T00:56:26.209Z,3.87
2023-04-01T00:59:00.593Z,3.40
2023-04-01T01:01:31.694Z,3.77
2023-04-01T01:04:00.713Z,3.83
2023-04-01T01:06:43.044Z,3.30
2023-04-01T01:09:24.262Z,4.00
2023-04-01T01:11:55.685Z,3.30
2023-04-01T01:14:41.457Z,3.40
2023-04-01T01:17:16.728Z,3.23
2023-04-01T01:19:54.022Z,3.47
2023-04-01T01:22:35.503Z,4.07
2023-04-01T01:25:21.511Z,3.53
2023-04-01T01:27:52.216Z,3.40
2023-04-01T01:30:38.964Z,3.37
2023-04-01T01:33:21.717Z,3.80
2023-04-01T01:35:53.773Z,3.20
2023-04-01T01:38:25.127Z,3.53
2023-04-01T01:40:55.428Z,4.67
2023-04-01T01:43:25.510Z,3.57
2023-04-01T01:45:55.585Z,3.80
2023-04-01T01:48:25.360Z,3.63
2023-04-01T01:50:55.433Z,4.00
2023-04-01T01:53:23.773Z,3.57
2023-04-01T01:55:52.982Z,3.70
2023-04-01T01:58:23.953Z,3.20
2023-04-01T02:00:53.760Z,3.70
2023-04-01T02:03:22.888Z,3.87
2023-04-01T02:05:52.934Z,3.60
2023-04-01T02:08:25.962Z,3.40
2023-04-01T02:10:58.238Z,3.47
2023-04-01T02:13:30.708Z,3.37
2023-04-01T02:16:02.668Z,3.20
2023-04-01T02:18:31.125Z,3.63
2023-04-01T02:21:00.416Z,3.70
2023-04-01T02:23:30.977Z,4.47
2023-04-01T02:25:59.186Z,3.57
2023-04-01T02:28:28.411Z,3.57
2023-04-01T02:30:57.937Z,3.60
2023-04-01T02:33:26.357Z,3.57
2023-04-01T02:35:54.946Z,3.37
2023-04-01T02:38:24.228Z,3.20
2023-04-01T02:41:00.538Z,3.43
2023-04-01T02:43:30.912Z,3.60
2023-04-01T02:45:59.301Z,3.50
2023-04-01T02:48:27.778Z,4.20
2023-04-01T02:50:56.859Z,3.43
2023-04-01T02:53:25.202Z,3.40
2023-04-01T02:55:54.946Z,3.50
2023-04-01T02:58:23.306Z,3.53
2023-04-01T03:00:51.448Z,2.97
2023-04-01T03:03:19.980Z,3.73
2023-04-01T03:05:48.369Z,3.67
2023-04-01T03:08:16.489Z,3.53
2023-04-01T03:10:44.840Z,3.27
2023-04-01T03:13:14.571Z,3.77
2023-04-01T03:15:42.954Z,3.60
2023-04-01T03:18:11.246Z,3.63
2023-04-01T03:20:39.599Z,3.60
2023-04-01T03:23:07.915Z,3.73
2023-04-01T03:25:36.201Z,3.53
2023-04-01T03:28:04.771Z,3.57
2023-04-01T03:30:34.794Z,3.37
2023-04-01T03:33:03.345Z,3.43
2023-04-01T03:35:32.161Z,3.50
2023-04-01T03:38:01.253Z,3.57
2023-04-01T03:40:29.673Z,3.50
2023-04-01T03:42:58.155Z,3.50
2023-04-01T03:45:26.562Z,3.30
2023-04-01T03:47:56.748Z,3.40
2023-04-01T03:50:25.238Z,3.13
2023-04-01T03:52:53.683Z,3.40
2023-04-01T03:55:22.231Z,3.20
2023-04-01T03:57:50.610Z,3.50
2023-04-01T04:00:19.260Z,3.43
2023-04-01T04:02:47.711Z,3.97
2023-04-01T04:05:17.524Z,3.27
2023-04-01T04:07:45.870Z,3.50
2023-04-01T04:10:14.349Z,3.40
2023-04-01T04:12:42.711Z,3.50
2023-04-01T04:15:11.692Z,3.50
2023-04-01T04:17:40.133Z,3.60
2023-04-01T04:20:09.850Z,3.60
2023-04-01T04:22:39.501Z,3.53
2023-04-01T04:25:08.147Z,3.50
2023-04-01T04:27:37.404Z,3.50
2023-04-01T04:30:06.417Z,3.47
2023-04-01T04:32:34.579Z,3.30
2023-04-01T04:35:03.131Z,3.17
2023-04-01T04:37:31.540Z,3.50
2023-04-01T04:40:01.371Z,3.60
2023-04-01T04:42:29.801Z,3.50
2023-04-01T04:44:58.269Z,3.40
2023-04-01T04:47:26.721Z,3.63
2023-04-01T04:49:55.547Z,3.60
2023-04-01T04:52:23.746Z,3.63
2023-04-01T04:54:52.097Z,3.47
2023-04-01T04:57:21.912Z,3.53
2023-04-01T04:59:50.636Z,3.00
2023-04-01T05:02:19.113Z,3.17
2023-04-01T05:04:47.517Z,3.10
2023-04-01T05:07:16.070Z,3.20
2023-04-01T05:09:46.789Z,3.73
2023-04-01T05:12:15.501Z,2.90
2023-04-01T05:14:45.784Z,3.30
2023-04-01T05:17:14.586Z,3.27
2023-04-01T05:19:43.015Z,3.37
2023-04-01T05:22:11.932Z,3.07
2023-04-01T05:24:40.534Z,3.57
2023-04-01T05:27:08.941Z,3.80
2023-04-01T05:29:37.422Z,3.40
2023-04-01T05:32:07.216Z,3.80
2023-04-01T05:34:36.070Z,3.63
2023-04-01T05:37:04.550Z,4.07
2023-04-01T05:39:32.899Z,3.73
2023-04-01T05:42:01.262Z,3.70
2023-04-01T05:44:29.360Z,4.10
2023-04-01T05:46:57.427Z,3.70
2023-04-01T05:49:28.397Z,3.93
2023-04-01T05:51:57.345Z,3.63
2023-04-01T05:54:25.735Z,3.83
2023-04-01T05:56:54.099Z,3.50
2023-04-01T05:59:22.142Z,3.60
2023-04-01T06:01:50.397Z,4.03
2023-04-01T06:04:19.470Z,4.40
2023-04-01T06:06:49.923Z,4.27
2023-04-01T06:09:19.410Z,4.00
2023-04-01T06:11:54.313Z,4.03
2023-04-01T06:14:31.853Z,5.87
2023-04-01T06:17:10.081Z,4.83
2023-04-01T06:19:43.280Z,5.30
2023-04-01T06:22:25.252Z,5.50
2023-04-01T06:25:01.167Z,8.17
2023-04-01T06:27:49.788Z,4.67
2023-04-01T06:30:42.842Z,4.53
2023-04-01T06:33:31.171Z,4.17
2023-04-01T06:36:18.054Z,4.40
2023-04-01T06:39:15.494Z,4.40
2023-04-01T06:42:22.292Z,4.20
2023-04-01T06:44:56.535Z,3.77
2023-04-01T06:47:30.144Z,3.83
2023-04-01T06:50:07.677Z,4.07
2023-04-01T06:52:45.919Z,4.03
2023-04-01T06:55:29.218Z,4.20
2023-04-01T06:58:00.301Z,3.87
2023-04-01T07:00:32.222Z,4.10
2023-04-01T07:03:08.498Z,4.27
2023-04-01T07:05:37.803Z,5.70
2023-04-01T07:08:10.524Z,5.03
2023-04-01T07:10:47.297Z,4.70
2023-04-01T07:13:21.306Z,4.20
2023-04-01T07:15:58.776Z,4.23
2023-04-01T07:18:33.869Z,4.20
2023-04-01T07:21:03.742Z,4.07
2023-04-01T07:23:38.585Z,4.43
2023-04-01T07:26:16.337Z,4.33
2023-04-01T07:28:45.776Z,4.43
2023-04-01T07:31:22.318Z,8.97
2023-04-01T07:34:01.317Z,8.90
2023-04-01T07:36:34.735Z,5.73
2023-04-01T07:39:12.252Z,6.10
2023-04-01T07:41:52.121Z,5.47
2023-04-01T07:44:27.874Z,4.67
2023-04-01T07:47:08.374Z,4.80
2023-04-01T07:49:52.367Z,4.50
2023-04-01T07:52:27.005Z,4.63
2023-04-01T07:55:02.008Z,4.13
2023-04-01T07:57:39.121Z,4.50
2023-04-01T08:00:13.849Z,4.30
2023-04-01T08:02:56.627Z,4.77
2023-04-01T08:05:29.817Z,4.47
2023-04-01T08:08:07.204Z,4.43
2023-04-01T08:10:43.834Z,4.80
2023-04-01T08:13:20.793Z,4.37
2023-04-01T08:15:58.099Z,4.37
2023-04-01T08:18:36.262Z,4.20
2023-04-01T08:21:07.603Z,4.10
2023-04-01T08:23:39.403Z,4.77
2023-04-01T08:26:12.651Z,4.90
2023-04-01T08:28:52.084Z,4.60
2023-04-01T08:31:26.849Z,3.97
2023-04-01T08:33:57.096Z,4.63
2023-04-01T08:36:30.514Z,4.50
2023-04-01T08:39:04.748Z,4.37
2023-04-01T08:42:08.179Z,4.47
2023-04-01T08:45:09.304Z,4.00
2023-04-01T08:47:55.224Z,4.37
2023-04-01T08:50:38.517Z,4.03
2023-04-01T08:53:13.563Z,4.40
2023-04-01T08:55:52.238Z,4.13
2023-04-01T08:58:34.032Z,4.27
2023-04-01T09:01:19.937Z,4.30
2023-04-01T09:04:06.430Z,4.27
2023-04-01T09:06:54.530Z,4.73
2023-04-01T09:09:53.994Z,4.50
2023-04-01T09:12:47.221Z,4.87
2023-04-01T09:15:39.581Z,4.37
2023-04-01T09:18:29.397Z,4.50
2023-04-01T09:21:16.013Z,4.03
2023-04-01T09:23:59.548Z,4.03
2023-04-01T09:26:37.306Z,5.23
2023-04-01T09:29:13.483Z,4.60
2023-04-01T09:32:07.112Z,4.77
2023-04-01T09:34:57.517Z,4.80
2023-04-01T09:37:40.658Z,6.03
2023-04-01T09:40:33.445Z,8.40
2023-04-01T09:43:27.782Z,4.53
2023-04-01T09:46:08.897Z,4.83
2023-04-01T09:49:08.733Z,6.00
2023-04-01T09:51:46.245Z,6.73
2023-04-01T09:54:38.439Z,4.87
2023-04-01T09:58:01.089Z,5.00
2023-04-01T10:00:51.423Z,4.43
2023-04-01T10:03:57.101Z,6.50
2023-04-01T10:06:53.210Z,6.10
2023-04-01T10:10:03.505Z,5.13
2023-04-01T10:13:01.856Z,5.03
2023-04-01T10:16:05.517Z,4.90
2023-04-01T10:19:09.950Z,5.00
2023-04-01T10:22:19.679Z,4.97
2023-04-01T10:25:19.366Z,5.13
2023-04-01T10:28:09.564Z,4.47
2023-04-01T10:31:10.021Z,4.33
2023-04-01T10:33:59.584Z,4.70
2023-04-01T10:36:59.054Z,4.77
2023-04-01T10:39:50.489Z,5.17
2023-04-01T10:42:49.128Z,5.27
2023-04-01T10:45:47.137Z,4.87
2023-04-01T10:48:26.893Z,5.00
2023-04-01T10:51:17.144Z,5.37
2023-04-01T10:54:16.881Z,5.70
2023-04-01T10:57:05.733Z,5.27
2023-04-01T11:00:11.397Z,5.00
2023-04-01T11:03:22.376Z,5.53
2023-04-01T11:06:25.632Z,5.97
2023-04-01T11:09:22.335Z,5.70
2023-04-01T11:12:15.425Z,6.00
2023-04-01T11:15:25.651Z,5.50
2023-04-01T11:18:33.718Z,5.90
2023-04-01T11:21:46.656Z,5.73
2023-04-01T11:24:48.988Z,5.57
2023-04-01T11:27:51.876Z,6.03
2023-04-01T11:30:30.838Z,7.10
2023-04-01T11:33:03.192Z,6.30
2023-04-01T11:36:07.695Z,7.00
2023-04-01T11:39:02.901Z,6.27
2023-04-01T11:41:43.071Z,7.10
2023-04-01T11:44:24.741Z,6.73
2023-04-01T11:47:06.011Z,6.67
2023-04-01T11:49:54.244Z,7.07
2023-04-01T11:52:41.398Z,6.13
2023-04-01T11:55:24.414Z,6.83
2023-04-01T11:58:27.060Z,6.67
2023-04-01T12:01:15.935Z,7.03
2023-04-01T12:04:06.983Z,6.83
2023-04-01T12:06:46.858Z,7.53
2023-04-01T12:09:23.796Z,7.57
2023-04-01T12:12:00.571Z,6.90
2023-04-01T12:14:44.461Z,8.50
2023-04-01T12:17:30.313Z,7.13
2023-04-01T12:20:05.101Z,7.27
2023-04-01T12:22:49.260Z,7.27
2023-04-01T12:25:28.117Z,7.50
2023-04-01T12:28:04.920Z,7.27
2023-04-01T12:30:54.797Z,7.50
2023-04-01T12:33:51.002Z,7.87
2023-04-01T12:36:32.430Z,7.23
2023-04-01T12:39:21.481Z,6.97
2023-04-01T12:41:57.231Z,7.00
2023-04-01T12:44:47.103Z,8.03
2023-04-01T12:47:43.949Z,7.47
2023-04-01T12:50:28.995Z,7.40
2023-04-01T12:53:12.510Z,7.83
2023-04-01T12:55:43.077Z,7.27
2023-04-01T12:58:57.578Z,6.57
2023-04-01T13:01:32.427Z,5.77
2023-04-01T13:04:42.420Z,6.43
2023-04-01T13:07:41.187Z,6.33
2023-04-01T13:10:19.765Z,6.20
2023-04-01T13:13:13.362Z,6.77
2023-04-01T13:15:47.672Z,6.80
2023-04-01T13:18:24.204Z,7.27
2023-04-01T13:21:02.493Z,6.93
2023-04-01T13:23:40.707Z,7.70
2023-04-01T13:26:20.043Z,7.30
2023-04-01T13:28:55.410Z,8.07
2023-04-01T13:31:40.963Z,7.50
2023-04-01T13:34:26.146Z,7.30
2023-04-01T13:37:07.320Z,7.20
2023-04-01T13:40:01.527Z,7.63
2023-04-01T13:42:36.390Z,6.97
2023-04-01T13:45:14.946Z,6.57
2023-04-01T13:48:22.018Z,6.83
2023-04-01T13:51:18.245Z,7.17
2023-04-01T13:54:14.862Z,7.03
2023-04-01T13:56:51.121Z,7.20
2023-04-01T14:00:02.182Z,7.83
2023-04-01T14:02:55.370Z,6.47
2023-04-01T14:05:43.250Z,6.63
2023-04-01T14:08:22.432Z,6.60
2023-04-01T14:11:05.773Z,7.33
2023-04-01T14:13:43.189Z,6.07
2023-04-01T14:16:36.354Z,6.70
2023-04-01T14:19:19.667Z,7.13
2023-04-01T14:21:59.076Z,6.97
2023-04-01T14:24:53.917Z,6.93
2023-04-01T14:27:40.317Z,7.60
2023-04-01T14:30:37.974Z,8.27
2023-04-01T14:33:22.480Z,8.27
2023-04-01T14:36:01.152Z,8.53
2023-04-01T14:38:41.987Z,7.43
2023-04-01T14:41:22.941Z,7.63
2023-04-01T14:44:03.373Z,8.43
2023-04-01T14:47:05.142Z,8.03
2023-04-01T14:49:38.179Z,7.63
2023-04-01T14:52:17.242Z,7.77
2023-04-01T14:54:48.410Z,8.00
2023-04-01T14:57:19.654Z,7.73
2023-04-01T14:59:53.260Z,8.13
2023-04-01T15:02:41.266Z,9.07
2023-04-01T15:05:22.922Z,7.93
2023-04-01T15:08:12.571Z,8.13
2023-04-01T15:11:07.557Z,8.50
2023-04-01T15:13:55.704Z,7.57
2023-04-01T15:16:29.697Z,7.40
2023-04-01T15:19:09.518Z,7.70
2023-04-01T15:22:23.191Z,7.77
2023-04-01T15:25:03.162Z,6.73
2023-04-01T15:27:37.774Z,7.87
2023-04-01T15:30:35.629Z,8.10
2023-04-01T15:33:30.940Z,9.37
2023-04-01T15:36:05.288Z,8.20
2023-04-01T15:38:43.696Z,8.43
2023-04-01T15:41:17.908Z,9.80
2023-04-01T15:43:52.297Z,9.03
2023-04-01T15:46:47.331Z,9.10
2023-04-01T15:49:38.532Z,9.10
2023-04-01T15:52:17.097Z,8.27
2023-04-01T15:55:16.597Z,7.93
2023-04-01T15:57:55.160Z,8.70
2023-04-01T16:00:30.281Z,7.60
2023-04-01T16:03:20.211Z,7.53
2023-04-01T16:06:04.358Z,7.97
2023-04-01T16:08:57.995Z,7.27
2023-04-01T16:11:34.801Z,7.87
2023-04-01T16:14:15.549Z,8.20
2023-04-01T16:16:56.333Z,8.00
2023-04-01T16:19:54.178Z,7.83
2023-04-01T16:22:29.122Z,7.93
2023-04-01T16:25:08.007Z,8.03
2023-04-01T16:27:44.515Z,7.97
2023-04-01T16:30:29.843Z,8.20
2023-04-01T16:33:04.671Z,9.03
2023-04-01T16:35:42.349Z,8.67
2023-04-01T16:38:21.194Z,8.60
2023-04-01T16:41:01.178Z,7.93
2023-04-01T16:43:37.657Z,9.90
2023-04-01T16:46:31.590Z,10.50
2023-04-01T16:49:15.852Z,10.63
2023-04-01T16:51:50.409Z,10.07
2023-04-01T16:54:31.892Z,9.70
2023-04-01T16:57:17.085Z,9.77
2023-04-01T16:59:55.505Z,10.10
2023-04-01T17:02:29.124Z,11.43
2023-04-01T17:05:03.494Z,11.47
2023-04-01T17:07:42.543Z,11.60
2023-04-01T17:10:30.089Z,11.57
2023-04-01T17:13:27.275Z,12.90
2023-04-01T17:16:05.524Z,13.00
2023-04-01T17:18:44.445Z,11.77
2023-04-01T17:21:18.960Z,13.10
2023-04-01T17:23:53.935Z,13.90
2023-04-01T17:26:32.408Z,12.93
2023-04-01T17:29:12.990Z,12.70
2023-04-01T17:31:53.687Z,13.27
2023-04-01T17:34:38.446Z,13.23
2023-04-01T17:37:33.082Z,13.70
2023-04-01T17:40:27.460Z,13.83
2023-04-01T17:43:06.527Z,13.90
2023-04-01T17:45:44.693Z,13.53
2023-04-01T17:48:23.039Z,13.93
2023-04-01T17:51:06.037Z,13.90
2023-04-01T17:53:45.763Z,16.10
2023-04-01T17:56:24.476Z,13.93
2023-04-01T17:59:01.998Z,13.53
2023-04-01T18:01:48.406Z,14.87
2023-04-01T18:04:38.698Z,14.43
2023-04-01T18:07:32.692Z,15.37
2023-04-01T18:10:18.732Z,15.70
2023-04-01T18:13:12.240Z,14.93
2023-04-01T18:15:45.956Z,15.57
2023-04-01T18:18:32.934Z,14.80
2023-04-01T18:21:06.020Z,14.70
2023-04-01T18:23:42.948Z,15.17
2023-04-01T18:26:22.432Z,14.63
2023-04-01T18:28:55.081Z,14.63
2023-04-01T18:31:28.186Z,14.70
2023-04-01T18:34:03.627Z,13.57
2023-04-01T18:36:43.165Z,13.53
2023-04-01T18:39:17.506Z,15.20
2023-04-01T18:41:55.627Z,14.03
2023-04-01T18:44:36.777Z,14.03
2023-04-01T18:47:25.764Z,13.07
2023-04-01T18:50:01.410Z,13.27
2023-04-01T18:52:35.162Z,13.73
2023-04-01T18:55:32.674Z,13.27
2023-04-01T18:58:15.455Z,12.83
2023-04-01T19:00:47.966Z,12.63
2023-04-01T19:03:25.091Z,12.37
2023-04-01T19:05:55.951Z,12.43
2023-04-01T19:08:32.977Z,12.93
2023-04-01T19:11:12.213Z,11.90
2023-04-01T19:13:49.402Z,11.73
2023-04-01T19:16:31.007Z,11.90
2023-04-01T19:19:13.228Z,11.60
2023-04-01T19:21:47.830Z,12.57
2023-04-01T19:24:44.676Z,12.53
2023-04-01T19:27:18.194Z,12.23
2023-04-01T19:30:03.629Z,11.70
2023-04-01T19:32:44.320Z,11.50
2023-04-01T19:35:25.998Z,12.70
2023-04-01T19:37:59.723Z,12.07
2023-04-01T19:40:47.673Z,12.17
2023-04-01T19:43:26.413Z,11.37
2023-04-01T19:45:58.887Z,12.63
2023-04-01T19:48:45.157Z,13.50
2023-04-01T19:51:24.228Z,12.23
2023-04-01T19:53:58.764Z,15.83
2023-04-01T19:56:28.629Z,12.80
2023-04-01T19:59:01.727Z,8.70
2023-04-01T20:01:44.278Z,6.60
2023-04-01T20:04:17.252Z,6.03
2023-04-01T20:06:53.543Z,5.83
2023-04-01T20:09:48.719Z,5.70
2023-04-01T20:12:27.546Z,6.03
2023-04-01T20:14:56.988Z,6.27
2023-04-01T20:17:28.194Z,20.52
2023-04-01T20:19:59.459Z,8.17
2023-04-01T20:22:41.505Z,6.53
2023-04-01T20:25:17.626Z,5.90
2023-04-01T20:27:50.815Z,6.50
2023-04-01T20:30:31.351Z,6.00
2023-04-01T20:33:09.211Z,5.77
2023-04-01T20:35:40.556Z,5.67
2023-04-01T20:38:42.887Z,6.07
2023-04-01T20:41:14.479Z,5.83
2023-04-01T20:43:59.874Z,5.70
2023-04-01T20:46:36.407Z,5.60
2023-04-01T20:49:26.237Z,5.13
2023-04-01T20:51:56.941Z,5.27
2023-04-01T20:54:43.710Z,5.70
2023-04-01T20:57:17.221Z,5.40
2023-04-01T21:00:18.082Z,5.67
2023-04-01T21:03:17.568Z,5.73
2023-04-01T21:06:02.598Z,4.70
2023-04-01T21:08:39.797Z,4.73
2023-04-01T21:11:19.330Z,5.17
2023-04-01T21:13:59.183Z,5.00
2023-04-01T21:16:34.951Z,4.57
2023-04-01T21:19:20.917Z,5.07
2023-04-01T21:21:56.240Z,4.97
2023-04-01T21:24:42.798Z,5.57
2023-04-01T21:27:15.434Z,4.60
2023-04-01T21:29:50.617Z,4.63
2023-04-01T21:32:33.432Z,4.13
2023-04-01T21:35:05.735Z,4.83
2023-04-01T21:38:00.970Z,4.17
2023-04-01T21:40:40.928Z,4.47
2023-04-01T21:43:18.403Z,4.40
2023-04-01T21:45:58.723Z,4.60
2023-04-01T21:48:36.617Z,4.60
2023-04-01T21:51:15.560Z,4.53
2023-04-01T21:53:55.092Z,4.30
2023-04-01T21:56:53.762Z,4.20
2023-04-01T22:00:12.579Z,4.50
2023-04-01T22:03:23.878Z,4.30
2023-04-01T22:05:58.692Z,4.47
2023-04-01T22:08:48.781Z,4.40
2023-04-01T22:11:22.918Z,4.47
2023-04-01T22:13:53.069Z,5.03
2023-04-01T22:16:27.787Z,4.13
2023-04-01T22:19:04.042Z,4.07
2023-04-01T22:21:35.649Z,3.93
2023-04-01T22:24:07.244Z,4.67
2023-04-01T22:26:46.155Z,4.43
2023-04-01T22:29:18.182Z,4.13
2023-04-01T22:31:51.133Z,4.03
2023-04-01T22:34:23.981Z,4.43
2023-04-01T22:36:57.592Z,4.43
2023-04-01T22:39:32.504Z,4.17
2023-04-01T22:42:04.275Z,4.20
2023-04-01T22:44:46.124Z,3.90
2023-04-01T22:47:19.592Z,4.27
2023-04-01T22:49:51.037Z,3.87
2023-04-01T22:52:23.212Z,4.10
2023-04-01T22:54:54.643Z,4.23
2023-04-01T22:57:35.359Z,3.83
2023-04-01T23:00:08.986Z,4.17
2023-04-01T23:02:40.175Z,4.00
2023-04-01T23:05:12.393Z,3.57
2023-04-01T23:07:50.082Z,3.97
2023-04-01T23:10:21.738Z,3.93
2023-04-01T23:12:50.681Z,4.00
2023-04-01T23:15:19.430Z,4.40
2023-04-01T23:17:57.156Z,3.97
2023-04-01T23:20:46.812Z,3.87
2023-04-01T23:23:20.518Z,4.30
2023-04-01T23:25:52.819Z,4.70
2023-04-01T23:28:42.414Z,4.43
2023-04-01T23:31:25.719Z,3.70
2023-04-01T23:33:58.020Z,4.23
2023-04-01T23:36:27.202Z,3.87
2023-04-01T23:38:56.361Z,4.20
2023-04-01T23:41:28.242Z,4.27
2023-04-01T23:43:58.403Z,4.00
2023-04-01T23:46:27.836Z,4.20
2023-04-01T23:48:57.890Z,3.57
2023-04-01T23:51:28.306Z,3.60
2023-04-01T23:54:03.613Z,3.40
2023-04-01T23:56:37.580Z,4.07
2023-04-01T23:59:06.163Z,3.70
